Time;durP1;ratioP1;P1;durP2;ratioP2;P2;SDS_P1;SDS_P2;PMS_P1;PMS_P2;Temp;Humidity;BMP_temperature;BMP_pressure;BME280_temperature;BME280_humidity;BME280_pressure;Samples;Min_cycle;Max_cycle;Signal;HPM_P1;HPM_P2
2022/09/28 00:01:34;;;;;;;2.20;2.10;;;;;;;17.57;100.00;-18239.03;5114985;28;20191;-60
2022/09/28 00:04:05;;;;;;;2.93;2.53;;;;;;;17.37;100.00;-18234.25;5114649;28;20187;-61
2022/09/28 00:06:32;;;;;;;3.37;2.50;;;;;;;17.48;100.00;-18236.75;5115028;28;20272;-60
2022/09/28 00:09:00;;;;;;;2.60;2.50;;;;;;;17.52;100.00;-18237.72;5114581;28;20194;-61
2022/09/28 00:11:28;;;;;;;2.20;2.10;;;;;;;17.27;100.00;-18231.84;5114891;28;20179;-61
2022/09/28 00:13:56;;;;;;;2.40;2.30;;;;;;;17.14;100.00;-18228.75;5114717;28;20188;-60
2022/09/28 00:16:26;;;;;;;2.50;2.33;;;;;;;17.22;100.00;-18230.66;5114710;28;20538;-60
2022/09/28 00:18:53;;;;;;;2.40;2.30;;;;;;;17.15;100.00;-18228.97;5114315;28;20691;-61
2022/09/28 00:21:23;;;;;;;2.77;2.67;;;;;;;16.97;100.00;-18224.78;5114404;28;20184;-61
2022/09/28 00:26:37;;;;;;;3.20;3.00;;;;;;;16.89;100.00;-18223.00;5114397;28;20202;-61
2022/09/28 00:29:04;;;;;;;2.87;2.67;;;;;;;16.97;100.00;-18224.78;5114599;28;20252;-61
2022/09/28 00:31:33;;;;;;;2.90;2.80;;;;;;;16.90;100.00;-18223.22;5114645;28;20565;-60
2022/09/28 00:34:01;;;;;;;3.03;2.83;;;;;;;17.02;100.00;-18225.97;5114615;28;20661;-60
2022/09/28 00:36:31;;;;;;;3.07;2.43;;;;;;;16.58;100.00;-18215.56;5114431;28;20191;-60
2022/09/28 00:38:59;;;;;;;3.07;2.90;;;;;;;16.48;100.00;-18213.16;5113985;28;20184;-60
2022/09/28 00:41:28;;;;;;;3.17;2.97;;;;;;;16.64;100.00;-18216.88;5114216;28;20545;-60
2022/09/28 00:44:36;;;;;;;2.53;2.43;;;;;;;16.66;100.00;-18217.47;5114113;28;20242;-61
2022/09/28 00:47:12;;;;;;;2.93;2.83;;;;;;;16.66;100.00;-18217.38;5088749;28;20322;-62
2022/09/28 00:49:43;;;;;;;2.83;2.73;;;;;;;16.46;100.00;-18212.69;5113769;28;20195;-60
2022/09/28 00:52:14;;;;;;;3.10;2.90;;;;;;;16.52;100.00;-18214.13;5113603;28;20284;-61
2022/09/28 00:54:45;;;;;;;3.63;3.53;;;;;;;16.26;100.00;-18208.00;5113744;28;20187;-61
2022/09/28 00:57:13;;;;;;;6.67;3.97;;;;;;;16.09;100.00;-18203.94;5113884;28;20183;-62
2022/09/28 00:59:41;;;;;;;4.40;4.20;;;;;;;16.16;100.00;-18205.63;5113456;28;20218;-60
2022/09/28 01:02:10;;;;;;;4.10;3.80;;;;;;;16.07;100.00;-18203.44;5113583;28;20275;-61
2022/09/28 01:04:38;;;;;;;4.80;4.40;;;;;;;16.18;100.00;-18206.09;5113958;28;20207;-61
2022/09/28 01:07:07;;;;;;;4.70;4.37;;;;;;;16.12;100.00;-18204.53;5113606;28;20206;-61
2022/09/28 01:09:38;;;;;;;5.03;4.67;;;;;;;16.16;100.00;-18205.50;5113662;28;20183;-60
2022/09/28 01:12:06;;;;;;;5.93;5.37;;;;;;;16.04;100.00;-18202.72;5113499;28;20278;-61
2022/09/28 01:14:33;;;;;;;5.57;5.20;;;;;;;16.11;100.00;-18204.41;5113686;28;20187;-61
2022/09/28 01:17:07;;;;;;;5.93;5.43;;;;;;;16.17;100.00;-18205.72;5113493;28;20183;-61
2022/09/28 01:19:59;;;;;;;5.70;5.40;;;;;;;16.11;100.00;-18204.28;5113046;28;20262;-61
2022/09/28 01:22:47;;;;;;;6.57;6.27;;;;;;;16.02;100.00;-18202.25;5113217;28;20661;-60
2022/09/28 01:25:31;;;;;;;6.37;6.07;;;;;;;16.21;100.00;-18206.69;5112998;28;20646;-60
2022/09/28 01:28:04;;;;;;;7.40;6.90;;;;;;;16.30;100.00;-18208.84;5113273;28;20256;-61
2022/09/28 01:30:39;;;;;;;6.90;6.60;;;;;;;16.29;100.00;-18208.59;5113308;28;20668;-61
2022/09/28 01:33:12;;;;;;;15.63;7.20;;;;;;;16.22;100.00;-18206.94;5112873;28;20187;-60
2022/09/28 01:35:45;;;;;;;7.57;7.07;;;;;;;16.22;100.00;-18206.94;5112914;28;20175;-61
2022/09/28 01:38:17;;;;;;;7.40;7.10;;;;;;;16.19;100.00;-18206.22;5112881;28;20188;-62
2022/09/28 01:40:46;;;;;;;9.80;7.43;;;;;;;16.24;100.00;-18207.41;5112749;28;20226;-61
2022/09/28 01:43:17;;;;;;;8.43;7.83;;;;;;;16.26;100.00;-18207.88;5112941;28;20190;-61
2022/09/28 01:45:48;;;;;;;7.70;7.40;;;;;;;16.20;100.00;-18206.56;5112698;28;20207;-61
2022/09/28 01:48:23;;;;;;;8.40;7.80;;;;;;;16.07;100.00;-18203.44;5112999;28;20549;-61
2022/09/28 01:50:56;;;;;;;7.53;7.17;;;;;;;16.03;100.00;-18202.38;5112850;28;20187;-61
2022/09/28 01:53:28;;;;;;;7.53;7.03;;;;;;;16.04;100.00;-18202.63;5112396;28;20190;-61
2022/09/28 01:56:00;;;;;;;7.67;7.37;;;;;;;16.09;100.00;-18203.81;5112715;28;20183;-61
2022/09/28 01:58:35;;;;;;;7.60;7.20;;;;;;;16.03;100.00;-18202.38;5112884;28;20194;-60
2022/09/28 02:01:08;;;;;;;6.23;5.73;;;;;;;16.18;100.00;-18206.09;5112820;28;20248;-61
2022/09/28 02:03:41;;;;;;;7.47;6.77;;;;;;;16.25;100.00;-18207.66;5112494;28;20271;-61
2022/09/28 02:06:14;;;;;;;7.00;6.43;;;;;;;16.30;100.00;-18208.97;5112507;28;20665;-60
2022/09/28 02:08:50;;;;;;;5.27;5.07;;;;;;;15.94;100.00;-18200.44;5112778;28;20180;-61
2022/09/28 02:11:20;;;;;;;4.90;4.57;;;;;;;15.73;100.00;-18195.41;5112350;28;20243;-61
2022/09/28 02:13:53;;;;;;;7.63;5.50;;;;;;;15.91;100.00;-18199.63;5112783;28;20625;-61
2022/09/28 02:16:31;;;;;;;5.27;4.97;;;;;;;15.96;100.00;-18200.94;5112500;28;20183;-60
2022/09/28 02:18:58;;;;;;;5.40;5.10;;;;;;;16.05;100.00;-18202.84;5111992;28;20230;-60
2022/09/28 02:21:29;;;;;;;7.37;5.60;;;;;;;16.08;100.00;-18203.56;5112446;28;20183;-61
2022/09/28 02:23:59;;;;;;;5.40;4.93;;;;;;;15.97;100.00;-18201.06;5112496;28;20206;-61
2022/09/28 02:26:31;;;;;;;5.40;4.97;;;;;;;16.02;100.00;-18202.25;5112406;28;20733;-60
2022/09/28 02:29:00;;;;;;;5.40;4.20;;;;;;;15.74;100.00;-18195.66;5112365;28;20183;-60
2022/09/28 02:31:27;;;;;;;4.00;3.80;;;;;;;15.84;100.00;-18198.06;5112742;28;20193;-60
2022/09/28 02:33:56;;;;;;;10.43;4.80;;;;;;;15.88;100.00;-18199.00;5112082;28;20191;-60
2022/09/28 02:36:25;;;;;;;9.73;3.97;;;;;;;15.74;100.00;-18195.66;5112453;28;20187;-61
2022/09/28 02:38:52;;;;;;;10.30;4.33;;;;;;;15.89;100.00;-18199.25;5112010;28;20180;-60
2022/09/28 02:41:29;;;;;;;13.77;4.83;;;;;;;15.90;100.00;-18199.50;5111983;28;20197;-60
2022/09/28 02:44:08;;;;;;;5.60;4.50;;;;;;;15.84;100.00;-18197.94;5111984;28;20187;-61
2022/09/28 02:46:47;;;;;;;6.37;3.77;;;;;;;15.82;100.00;-18197.56;5112170;28;20745;-61
2022/09/28 02:49:23;;;;;;;10.67;4.57;;;;;;;15.83;100.00;-18197.81;5111958;28;20187;-61
2022/09/28 02:52:02;;;;;;;14.47;4.50;;;;;;;15.76;100.00;-18196.13;5111908;28;20266;-61
2022/09/28 02:54:48;;;;;;;8.77;4.30;;;;;;;15.81;100.00;-18197.34;5112346;28;20187;-60
2022/09/28 02:57:27;;;;;;;4.87;3.37;;;;;;;15.84;100.00;-18198.06;5110084;28;20285;-60
2022/09/28 03:00:04;;;;;;;5.90;3.47;;;;;;;15.80;100.00;-18196.97;5111732;28;20194;-60
2022/09/28 03:02:36;;;;;;;11.40;3.97;;;;;;;15.70;100.00;-18194.69;5111842;28;20190;-60
2022/09/28 03:05:11;;;;;;;6.67;3.53;;;;;;;15.65;100.00;-18193.38;5111915;28;20180;-61
2022/09/28 03:07:42;;;;;;;2.97;2.77;;;;;;;15.50;100.00;-18189.91;5115665;28;20236;-61
2022/09/28 03:10:15;;;;;;;6.93;3.53;;;;;;;15.57;100.00;-18191.56;5115707;28;20190;-61
2022/09/28 03:12:44;;;;;;;3.50;3.20;;;;;;;15.39;100.00;-18187.25;5115944;28;20607;-61
2022/09/28 03:15:20;;;;;;;3.30;3.00;;;;;;;15.49;100.00;-18189.66;5115903;28;20689;-61
2022/09/28 03:17:47;;;;;;;3.43;3.23;;;;;;;15.33;100.00;-18185.94;5115405;28;20189;-60
2022/09/28 03:20:14;;;;;;;3.57;3.07;;;;;;;15.46;100.00;-18188.94;5115909;28;20546;-60
2022/09/28 03:22:41;;;;;;;4.20;3.03;;;;;;;15.36;100.00;-18186.53;5115835;28;20196;-61
2022/09/28 03:25:09;;;;;;;3.67;3.37;;;;;;;15.39;100.00;-18187.25;5115411;28;20183;-61
2022/09/28 03:27:35;;;;;;;3.63;3.33;;;;;;;15.23;100.00;-18183.53;5115749;28;20673;-61
2022/09/28 03:30:03;;;;;;;3.93;3.43;;;;;;;15.35;100.00;-18186.28;5115325;28;20187;-61
2022/09/28 03:32:31;;;;;;;6.90;3.57;;;;;;;15.31;100.00;-18185.31;5115384;28;20191;-60
2022/09/28 03:34:58;;;;;;;5.63;3.83;;;;;;;15.20;100.00;-18182.81;5115195;28;20510;-60
2022/09/28 03:37:26;;;;;;;4.27;3.87;;;;;;;15.17;100.00;-18181.97;5115683;28;20205;-60
2022/09/28 03:39:53;;;;;;;11.43;4.23;;;;;;;15.18;100.00;-18182.31;5115373;28;20527;-61
2022/09/28 03:42:20;;;;;;;25.87;7.53;;;;;;;15.34;100.00;-18186.03;5115241;28;20219;-60
2022/09/28 03:44:47;;;;;;;25.57;8.27;;;;;;;15.49;100.00;-18189.66;5115328;28;20191;-60
2022/09/28 03:47:14;;;;;;;25.77;7.53;;;;;;;15.48;100.00;-18189.53;5114914;28;20203;-60
2022/09/28 03:49:43;;;;;;;10.83;5.23;;;;;;;15.20;100.00;-18182.69;5115166;28;20226;-61
2022/09/28 03:52:10;;;;;;;6.80;5.60;;;;;;;15.23;100.00;-18183.53;5114916;28;20183;-60
2022/09/28 03:54:36;;;;;;;10.27;6.23;;;;;;;15.28;100.00;-18184.59;5115112;28;20626;-60
2022/09/28 03:57:03;;;;;;;9.63;6.07;;;;;;;15.31;100.00;-18185.44;5114746;28;20272;-60
2022/09/28 03:59:30;;;;;;;15.87;7.27;;;;;;;15.33;100.00;-18185.81;5114778;28;20184;-60
2022/09/28 04:01:57;;;;;;;21.17;8.80;;;;;;;15.31;100.00;-18185.44;5096563;28;20184;-60
2022/09/28 04:04:24;;;;;;;13.53;8.33;;;;;;;15.41;100.00;-18187.72;5114634;28;20198;-61
2022/09/28 04:06:53;;;;;;;12.80;9.30;;;;;;;15.58;100.00;-18191.81;5114850;28;20570;-61
2022/09/28 04:09:19;;;;;;;16.23;8.47;;;;;;;15.60;100.00;-18192.19;5114544;28;20198;-61
2022/09/28 04:11:47;;;;;;;9.83;8.20;;;;;;;15.68;100.00;-18194.22;5114711;28;20195;-61
2022/09/28 04:14:14;;;;;;;10.33;7.87;;;;;;;15.54;100.00;-18190.84;5114675;28;20630;-60
2022/09/28 04:16:41;;;;;;;12.37;8.03;;;;;;;15.72;100.00;-18195.19;5114250;28;20184;-60
2022/09/28 04:19:08;;;;;;;18.30;9.17;;;;;;;15.76;100.00;-18196.00;5114235;28;20234;-60
2022/09/28 04:21:35;;;;;;;22.03;9.70;;;;;;;15.81;100.00;-18197.34;5114642;28;20187;-61
2022/09/28 04:24:03;;;;;;;11.77;9.27;;;;;;;15.78;100.00;-18196.63;5114780;28;20195;-60
2022/09/28 04:26:30;;;;;;;23.20;10.47;;;;;;;15.91;100.00;-18199.63;5114129;28;20207;-60
2022/09/28 04:31:43;;;;;;;13.70;8.37;;;;;;;16.11;100.00;-18204.41;5114227;28;20217;-59
2022/09/28 04:34:11;;;;;;;14.63;8.80;;;;;;;16.18;100.00;-18205.97;5114020;28;20219;-60
2022/09/28 04:36:38;;;;;;;8.67;6.37;;;;;;;16.27;100.00;-18208.25;5113839;28;20211;-60
2022/09/28 04:39:06;;;;;;;9.77;6.80;;;;;;;16.38;100.00;-18210.75;5114269;28;20193;-60
2022/09/28 04:41:33;;;;;;;6.97;5.60;;;;;;;16.93;100.00;-18223.72;5114375;28;20191;-61
2022/09/28 04:44:01;;;;;;;7.80;5.33;;;;;;;17.24;100.00;-18231.13;5114150;28;20234;-60
2022/09/28 04:46:28;;;;;;;6.90;5.10;;;;;;;17.59;100.00;-18239.53;5114014;28;20574;-61
2022/09/28 04:48:55;;;;;;;4.23;3.77;;;;;;;18.31;100.00;-18256.50;5114091;28;20277;-60
2022/09/28 04:51:22;;;;;;;4.03;3.73;;;;;;;19.23;100.00;-17954.16;5113829;28;20180;-61
2022/09/28 04:53:49;;;;;;;10.43;4.17;;;;;;;19.66;100.00;16719.06;5113669;28;20183;-60
2022/09/28 04:56:18;;;;;;;8.93;4.07;;;;;;;20.58;100.00;59775.28;5114015;28;20206;-61
2022/09/28 04:58:46;;;;;;;15.60;4.47;;;;;;;21.12;100.00;114185.38;5113788;28;20637;-61
2022/09/28 05:01:15;;;;;;;27.53;7.30;;;;;;;21.13;100.00;151350.09;5113870;28;20705;-60
2022/09/28 05:03:42;;;;;;;10.20;5.40;;;;;;;21.26;100.00;151383.22;5113883;28;20315;-61
2022/09/28 05:06:13;;;;;;;11.03;4.03;;;;;;;21.08;100.00;151336.06;5113693;28;20660;-61
2022/09/28 05:08:40;;;;;;;9.97;4.97;;;;;;;21.48;100.00;151436.75;5113680;28;20202;-61
2022/09/28 05:11:10;;;;;;;10.00;4.97;;;;;;;21.48;100.00;151436.75;5113716;28;20184;-61
2022/09/28 05:13:42;;;;;;;25.07;5.67;;;;;;;20.82;100.00;120515.88;5093225;28;20204;-61
2022/09/28 05:16:09;;;;;;;25.67;8.10;;;;;;;20.76;100.00;94688.47;5113266;28;20194;-61
2022/09/28 05:18:37;;;;;;;11.63;5.60;;;;;;;20.79;100.00;131295.91;5113047;28;20276;-61
2022/09/28 05:21:04;;;;;;;12.40;5.40;;;;;;;21.79;100.00;151515.78;5113150;28;20179;-62
2022/09/28 05:23:31;;;;;;;11.18;5.13;;;;;;;22.55;100.00;151707.09;5113498;28;20202;-61
2022/09/28 05:26:01;;;;;;;15.90;6.65;;;;;;;23.27;100.00;151888.28;5113035;28;20194;-62
2022/09/28 05:28:29;;;;;;;21.30;6.82;;;;;;;23.64;100.00;151982.75;5112125;28;20199;-63
2022/09/28 05:31:00;;;;;;;11.40;6.95;;;;;;;23.55;100.00;151961.03;5113999;28;20188;-65
2022/09/28 05:33:27;;;;;;;7.28;6.75;;;;;;;23.29;100.00;151894.69;5113038;28;20244;-66
2022/09/28 05:35:54;;;;;;;7.38;6.40;;;;;;;22.67;100.00;151737.69;5113338;28;20188;-65
2022/09/28 05:38:21;;;;;;;8.48;6.90;;;;;;;21.84;100.00;151528.53;5113196;28;20534;-57
2022/09/28 05:40:48;;;;;;;8.07;7.67;;;;;;;21.33;100.00;127699.97;5112877;28;20187;-58
2022/09/28 05:43:15;;;;;;;9.30;8.57;;;;;;;20.89;100.00;88034.59;5112802;28;20184;-56
2022/09/28 05:45:42;;;;;;;12.20;11.00;;;;;;;21.02;100.00;77064.50;5113073;28;20621;-64
2022/09/28 05:48:10;;;;;;;24.15;11.65;;;;;;;21.04;100.00;58168.50;5112726;28;20204;-67
2022/09/28 05:50:37;;;;;;;11.30;10.20;;;;;;;21.32;100.00;78434.66;5112663;28;20254;-67
2022/09/28 05:53:06;;;;;;;11.20;9.75;;;;;;;21.89;100.00;150802.78;5112688;28;20190;-67
2022/09/28 05:55:34;;;;;;;15.43;9.02;;;;;;;22.25;100.00;151631.84;5113120;28;20203;-66
2022/09/28 05:58:02;;;;;;;14.50;10.02;;;;;;;22.20;100.00;151620.38;5112565;28;20287;-64
2022/09/28 06:00:30;;;;;;;23.02;11.15;;;;;;;22.72;100.00;151750.50;5112889;28;20620;-65
2022/09/28 06:02:59;;;;;;;31.10;11.60;;;;;;;23.20;100.00;151873.00;5112612;28;20218;-66
2022/09/28 06:05:27;;;;;;;57.53;12.80;;;;;;;23.66;100.00;151989.16;5112646;28;20405;-66
2022/09/28 06:07:56;;;;;;;20.13;10.23;;;;;;;23.39;100.00;151918.88;5112588;28;20554;-66
2022/09/28 06:10:23;;;;;;;16.33;8.65;;;;;;;24.02;100.00;152078.47;5112863;28;20539;-66
2022/09/28 06:12:52;;;;;;;9.25;8.48;;;;;;;25.90;100.00;152553.81;5112882;28;20528;-66
2022/09/28 06:15:20;;;;;;;11.82;7.72;;;;;;;26.11;100.00;152606.22;5112664;28;20218;-66
2022/09/28 06:17:47;;;;;;;12.73;7.97;;;;;;;26.03;100.00;152587.06;5112617;28;20184;-65
2022/09/28 06:20:14;;;;;;;15.13;8.73;;;;;;;26.42;100.00;152684.28;5113107;28;20198;-66
2022/09/28 06:22:43;;;;;;;11.13;8.05;;;;;;;26.76;100.00;152772.53;5106590;27;20221;-66
2022/09/28 06:25:09;;;;;;;11.85;8.73;;;;;;;26.69;100.00;152754.59;5122776;28;20194;-67
2022/09/28 06:27:38;;;;;;;11.90;8.65;;;;;;;27.14;100.00;152867.22;5132567;28;20209;-66
2022/09/28 06:30:05;;;;;;;11.35;10.35;;;;;;;27.25;100.00;152895.34;5132542;28;20183;-65
2022/09/28 06:32:32;;;;;;;10.73;7.70;;;;;;;27.39;100.00;152931.16;5122896;28;20191;-67
2022/09/28 06:34:59;;;;;;;9.18;6.85;;;;;;;27.47;100.00;152951.69;5126258;28;20206;-66
2022/09/28 06:37:27;;;;;;;7.38;6.60;;;;;;;27.72;100.00;153014.38;5132922;28;20183;-65
2022/09/28 06:39:56;;;;;;;5.38;5.18;;;;;;;27.85;100.00;153047.66;5130343;27;20273;-65
2022/09/28 06:42:22;;;;;;;7.13;6.15;;;;;;;27.15;100.00;152869.78;5106080;28;20203;-67
2022/09/28 06:44:49;;;;;;;7.20;6.68;;;;;;;27.42;100.00;152937.53;5096600;28;20194;-67
2022/09/28 06:47:16;;;;;;;6.65;6.25;;;;;;;27.73;100.00;153016.94;5096275;28;20204;-66
2022/09/28 06:49:46;;;;;;;7.40;6.70;;;;;;;27.28;100.00;152903.03;5096028;28;20282;-65
2022/09/28 06:52:13;;;;;;;8.65;8.07;;;;;;;27.44;100.00;152942.69;5095711;28;20227;-66
2022/09/28 06:54:40;;;;;;;13.05;11.68;;;;;;;27.56;100.00;152973.44;5095680;28;20206;-66
2022/09/28 06:57:09;;;;;;;10.45;9.52;;;;;;;27.97;100.00;153078.34;5095644;28;20191;-67
2022/09/28 06:59:36;;;;;;;5.65;5.15;;;;;;;27.65;100.00;152997.75;5095799;28;20426;-67
2022/09/28 07:02:03;;;;;;;6.40;4.20;;;;;;;27.67;100.00;153001.56;5096262;28;20573;-67
2022/09/28 07:04:30;;;;;;;7.30;3.90;;;;;;;27.82;100.00;153038.69;5095508;28;20533;-66
2022/09/28 07:06:57;;;;;;;2.80;2.47;;;;;;;27.72;100.00;153014.38;5095711;28;20533;-65
2022/09/28 07:09:24;;;;;;;2.97;2.78;;;;;;;27.81;100.00;153037.41;5111827;27;20206;-67
2022/09/28 07:11:52;;;;;;;15.27;3.33;;;;;;;27.58;100.00;152979.81;5136649;27;20179;-66
2022/09/28 07:14:22;;;;;;;3.47;2.97;;;;;;;27.71;100.00;153013.09;5136273;27;20228;-67
2022/09/28 07:16:49;;;;;;;2.92;2.83;;;;;;;27.85;100.00;153046.38;5136482;27;20185;-67
2022/09/28 07:19:16;;;;;;;3.55;3.30;;;;;;;27.84;100.00;153045.09;5135905;27;20294;-67
2022/09/28 07:21:43;;;;;;;2.83;2.72;;;;;;;27.52;100.00;152963.22;5136126;27;20195;-67
2022/09/28 07:24:12;;;;;;;3.88;3.33;;;;;;;27.62;100.00;152990.09;5136539;27;20201;-67
2022/09/28 07:26:39;;;;;;;11.07;3.38;;;;;;;28.25;100.00;153147.53;5136271;27;20186;-67
2022/09/28 07:29:06;;;;;;;8.35;3.75;;;;;;;28.42;100.00;153192.34;5126837;27;20561;-66
2022/09/28 07:31:35;;;;;;;3.60;3.30;;;;;;;28.88;100.00;153308.91;5116031;28;20644;-66
2022/09/28 07:34:01;;;;;;;4.40;4.10;;;;;;;29.14;100.00;153374.25;5115748;28;20210;-67
2022/09/28 07:36:29;;;;;;;4.35;3.95;;;;;;;28.37;100.00;153179.56;5115589;28;20180;-67
2022/09/28 07:38:55;;;;;;;4.25;3.95;;;;;;;28.59;100.00;153235.91;5115419;28;20176;-69
2022/09/28 07:41:31;;;;;;;7.15;3.75;;;;;;;27.86;100.00;153050.22;5115350;28;20503;-66
2022/09/28 07:44:04;;;;;;;3.70;2.95;;;;;;;27.90;100.00;153059.16;5115069;28;20186;-67
2022/09/28 07:46:32;;;;;;;7.30;4.05;;;;;;;27.67;100.00;153002.84;5115416;28;20482;-67
2022/09/28 07:49:04;;;;;;;4.80;4.00;;;;;;;27.85;100.00;153046.38;5115719;28;20950;-64
2022/09/28 07:51:31;;;;;;;7.25;4.30;;;;;;;27.61;100.00;152987.53;5114406;28;20512;-66
2022/09/28 07:54:00;;;;;;;5.65;2.58;;;;;;;27.45;100.00;152945.25;5115282;28;20183;-66
2022/09/28 07:56:27;;;;;;;3.35;2.75;;;;;;;27.60;100.00;152984.97;5115362;28;20223;-66
2022/09/28 07:58:54;;;;;;;7.72;2.47;;;;;;;27.85;100.00;153046.38;5115375;28;20182;-67
2022/09/28 08:01:21;;;;;;;2.55;1.85;;;;;;;27.85;100.00;153046.38;5114957;28;20187;-66
2022/09/28 08:03:50;;;;;;;3.17;1.70;;;;;;;27.81;100.00;153037.41;5114923;28;20538;-66
2022/09/28 08:06:18;;;;;;;2.95;1.55;;;;;;;27.67;100.00;153002.84;5114597;28;20661;-67
2022/09/28 08:08:48;;;;;;;1.70;1.60;;;;;;;27.70;100.00;153010.56;5114523;28;20233;-66
2022/09/28 08:11:16;;;;;;;2.05;1.95;;;;;;;28.02;100.00;153089.88;5114710;28;20179;-67
2022/09/28 08:13:44;;;;;;;2.17;1.70;;;;;;;28.22;100.00;153141.13;5114776;28;20202;-67
2022/09/28 08:16:12;;;;;;;1.83;1.73;;;;;;;28.44;100.00;153197.47;5114209;28;20183;-66
2022/09/28 08:18:38;;;;;;;6.20;2.13;;;;;;;28.50;96.31;153212.84;5114913;28;20235;-66
2022/09/28 08:24:06;;;;;;;3.45;1.73;;;;;;;29.63;91.32;153497.22;5051789;28;20660;-68
2022/09/28 08:26:33;;;;;;;1.95;1.42;;;;;;;30.20;87.10;153643.38;5051750;28;20185;-66
2022/09/28 08:29:00;;;;;;;2.55;2.00;;;;;;;30.27;86.23;153660.03;5071783;28;20227;-67
2022/09/28 08:31:27;;;;;;;2.55;1.50;;;;;;;30.45;84.25;153704.94;5114925;28;20561;-68
2022/09/28 08:33:54;;;;;;;2.30;1.90;;;;;;;30.92;77.79;153825.47;5114885;28;20240;-67
2022/09/28 08:36:21;;;;;;;1.92;1.83;;;;;;;30.59;80.80;153742.13;5114107;28;20191;-67
2022/09/28 08:38:48;;;;;;;2.30;2.10;;;;;;;30.97;82.25;153838.28;5114307;28;20175;-68
2022/09/28 08:41:24;;;;;;;3.90;2.63;;;;;;;30.93;79.87;153828.03;5095857;28;20183;-68
2022/09/28 08:44:22;;;;;;;9.05;3.78;;;;;;;30.94;73.59;153830.56;5093628;28;20183;-68
2022/09/28 08:46:53;;;;;;;4.25;2.88;;;;;;;31.66;72.78;154012.75;5093430;28;20610;-68
2022/09/28 08:49:26;;;;;;;4.43;2.58;;;;;;;31.91;71.24;154075.66;5106372;27;20203;-67
2022/09/28 08:52:13;;;;;;;3.10;1.90;;;;;;;31.96;70.02;154089.72;5120098;27;20196;-66
2022/09/28 08:54:47;;;;;;;9.43;3.72;;;;;;;32.35;69.49;154187.31;5112764;28;20187;-67
2022/09/28 08:57:20;;;;;;;3.08;2.78;;;;;;;32.62;67.22;154256.66;5113634;28;20194;-67
2022/09/28 08:59:51;;;;;;;4.13;2.45;;;;;;;32.38;63.28;154195.03;5113837;28;20275;-67
2022/09/28 09:02:24;;;;;;;2.80;2.13;;;;;;;32.80;60.47;154302.88;5114251;28;20617;-67
2022/09/28 09:04:52;;;;;;;2.40;2.30;;;;;;;32.43;64.71;154207.81;5113468;28;20192;-67
2022/09/28 09:07:34;;;;;;;3.67;2.72;;;;;;;32.61;64.02;154254.03;5113563;28;20615;-66
2022/09/28 09:10:11;;;;;;;4.05;3.03;;;;;;;32.06;68.02;154114.13;5108288;28;20199;-66
2022/09/28 09:12:47;;;;;;;2.90;2.55;;;;;;;32.31;65.65;154177.03;5104415;27;20192;-67
2022/09/28 09:15:24;;;;;;;6.20;2.70;;;;;;;32.91;63.32;154331.09;5108209;28;20569;-67
2022/09/28 09:18:06;;;;;;;2.42;2.28;;;;;;;32.56;60.76;154242.50;5108978;28;20192;-68
2022/09/28 09:20:41;;;;;;;2.47;2.28;;;;;;;33.03;59.37;154361.91;5100372;27;20206;-68
2022/09/28 09:23:16;;;;;;;1.73;1.63;;;;;;;32.68;52.48;154272.03;5104221;28;20301;-66
2022/09/28 09:25:49;;;;;;;2.30;1.90;;;;;;;32.61;55.55;154254.03;5094187;28;20237;-64
2022/09/28 09:28:46;;;;;;;2.90;2.55;;;;;;;33.33;55.35;154436.41;5107887;28;20211;-67
2022/09/28 09:31:26;;;;;;;2.60;2.50;;;;;;;33.79;52.45;154554.59;5084294;28;20210;-67
2022/09/28 09:34:15;;;;;;;1.48;1.38;;;;;;;33.73;50.58;154539.22;5093071;28;20206;-66
2022/09/28 09:36:58;;;;;;;4.80;1.88;;;;;;;34.07;49.01;154623.97;5089823;28;20231;-67
2022/09/28 09:39:39;;;;;;;1.92;1.63;;;;;;;33.76;49.65;154546.91;5092545;28;20180;-67
2022/09/28 09:42:18;;;;;;;2.17;2.00;;;;;;;34.26;45.78;154672.81;5092583;28;20699;-67
2022/09/28 09:45:13;;;;;;;1.65;1.55;;;;;;;34.19;41.52;154656.16;5092556;28;20184;-67
2022/09/28 09:47:43;;;;;;;1.40;1.30;;;;;;;34.04;40.09;154617.53;5101286;28;20183;-66
2022/09/28 09:50:23;;;;;;;2.08;1.00;;;;;;;33.75;39.39;154544.31;5112605;28;20187;-65
2022/09/28 09:52:56;;;;;;;1.05;1.05;;;;;;;33.10;38.38;154377.34;5104159;28;20658;-67
2022/09/28 09:55:29;;;;;;;2.53;1.10;;;;;;;32.91;39.65;154331.09;5092095;28;20278;-66
2022/09/28 09:58:04;;;;;;;1.33;1.23;;;;;;;32.50;41.43;154227.13;5112162;27;20286;-67
2022/09/28 10:00:34;;;;;;;1.65;1.00;;;;;;;32.39;39.58;154197.56;5110949;28;20190;-67
2022/09/28 10:03:01;;;;;;;1.45;1.25;;;;;;;32.42;40.52;154205.31;5112626;28;20240;-67
2022/09/28 10:05:32;;;;;;;1.63;0.85;;;;;;;32.52;41.63;154232.22;5112760;28;20538;-67
2022/09/28 10:08:04;;;;;;;7.82;1.00;;;;;;;33.00;41.08;154354.22;5112241;28;20557;-66
2022/09/28 10:10:34;;;;;;;1.58;1.33;;;;;;;32.90;42.80;154328.53;5112218;28;20212;-67
2022/09/28 10:13:02;;;;;;;1.30;1.20;;;;;;;32.75;44.22;154288.75;5112629;28;20683;-66
2022/09/28 10:15:31;;;;;;;1.15;1.10;;;;;;;32.68;43.41;154272.03;5108905;28;20227;-68
2022/09/28 10:18:05;;;;;;;1.23;1.23;;;;;;;33.28;40.98;154424.84;5112529;28;20274;-66
2022/09/28 10:20:37;;;;;;;2.58;1.48;;;;;;;33.18;41.07;154397.91;5108352;28;20550;-66
2022/09/28 10:23:10;;;;;;;3.28;1.00;;;;;;;33.12;41.03;154382.44;5100309;28;20570;-67
2022/09/28 10:25:38;;;;;;;1.05;0.90;;;;;;;32.78;40.37;154297.72;5092425;28;20183;-66
2022/09/28 10:28:06;;;;;;;2.13;1.15;;;;;;;33.53;39.80;154487.75;5092118;28;20609;-67
2022/09/28 10:30:43;;;;;;;1.77;1.13;;;;;;;34.15;37.89;154645.81;5092063;28;20550;-66
2022/09/28 10:33:29;;;;;;;4.28;1.20;;;;;;;33.31;36.98;154431.31;5091505;28;20194;-65
2022/09/28 10:36:00;;;;;;;0.93;0.90;;;;;;;33.17;36.57;154395.34;5092026;28;20260;-66
2022/09/28 10:38:29;;;;;;;1.48;0.93;;;;;;;33.41;36.37;154458.25;5092177;28;20192;-67
2022/09/28 10:40:59;;;;;;;0.73;0.73;;;;;;;33.07;36.57;154372.19;5092204;28;20185;-67
2022/09/28 10:43:29;;;;;;;1.42;1.02;;;;;;;33.25;36.99;154417.16;5091644;28;20191;-68
2022/09/28 10:46:06;;;;;;;0.95;0.88;;;;;;;32.83;36.13;154310.56;5092020;28;20186;-66
2022/09/28 10:48:48;;;;;;;0.98;0.95;;;;;;;32.82;36.96;154306.72;5097030;28;20676;-64
2022/09/28 10:51:16;;;;;;;3.13;0.73;;;;;;;33.24;36.38;154414.59;5132465;28;20256;-64
2022/09/28 10:53:59;;;;;;;0.88;0.75;;;;;;;33.56;35.66;154495.50;5133050;28;20205;-65
2022/09/28 10:56:28;;;;;;;1.30;1.30;;;;;;;34.16;34.72;154647.16;5132871;28;20688;-64
2022/09/28 10:58:56;;;;;;;1.50;1.40;;;;;;;34.55;33.67;154747.31;5128029;28;20200;-65
2022/09/28 11:01:27;;;;;;;2.00;0.80;;;;;;;33.40;34.89;154454.38;5111477;28;20249;-64
2022/09/28 11:03:57;;;;;;;1.83;1.13;;;;;;;33.22;36.23;154409.47;5106101;28;20202;-64
2022/09/28 11:06:26;;;;;;;2.28;1.30;;;;;;;32.37;37.65;154192.47;5094083;28;20535;-64
2022/09/28 11:08:56;;;;;;;2.13;1.10;;;;;;;30.59;41.00;153742.13;5111826;28;20650;-65
2022/09/28 11:11:24;;;;;;;4.25;1.17;;;;;;;30.00;41.33;153592.13;5112018;28;20297;-64
2022/09/28 11:13:54;;;;;;;1.23;0.98;;;;;;;29.78;41.47;153535.69;5093687;28;20228;-64
2022/09/28 11:16:27;;;;;;;5.18;1.45;;;;;;;29.89;42.34;153563.91;5111678;28;20607;-64
2022/09/28 11:18:56;;;;;;;6.90;1.10;;;;;;;29.86;41.27;153556.19;5111165;28;20231;-64
2022/09/28 11:21:26;;;;;;;3.47;1.45;;;;;;;29.54;41.95;153474.16;5111073;28;20187;-64
2022/09/28 11:24:04;;;;;;;0.90;0.82;;;;;;;29.06;47.10;153353.75;5111691;28;20195;-65
2022/09/28 11:26:43;;;;;;;1.23;0.93;;;;;;;28.84;46.14;153297.38;5114186;28;20219;-64
2022/09/28 11:29:22;;;;;;;4.95;1.00;;;;;;;28.91;45.00;153315.31;5115996;28;20252;-64
2022/09/28 11:31:49;;;;;;;4.63;1.50;;;;;;;29.06;46.53;153353.75;5115053;28;20208;-64
2022/09/28 11:34:22;;;;;;;1.95;1.35;;;;;;;28.84;47.43;153298.69;5115144;28;20187;-64
2022/09/28 11:37:21;;;;;;;1.63;0.70;;;;;;;28.66;47.42;153251.22;5115302;28;20270;-64
2022/09/28 11:39:59;;;;;;;4.10;1.05;;;;;;;28.64;46.72;153247.41;5115170;28;20594;-64
2022/09/28 11:42:38;;;;;;;3.03;0.95;;;;;;;28.30;47.16;153161.66;5114992;28;20183;-64